Terminal Aerodrome Forecast
Issued by NWS

Home | Current Version | Previous Version | Text Only | Print | Product List | Glossary On
Versions: 1 2 3 4 5 6 7 8 9 10 11 12 13
000
FTUS45 KTFX 290520
TAFHVR
TAF
KHVR 290520Z 2906/3006 10008KT P6SM VCTS SCT070CB BKN120
      TEMPO 2906/2910 VRB20G30KT 2SM TSRA BKN050CB
     FM291200 VRB06KT P6SM SCT150
     FM292200 11009KT P6SM VCTS SCT070CB BKN150=

USA.gov is the U.S. government's official web portal to all federal, state and local government web resources and services.